createdAt,value
2019-05-09T00:00:43.749Z,12.53
2019-05-09T00:03:13.806Z,12.55
2019-05-09T00:05:44.091Z,12.53
2019-05-09T00:08:13.939Z,12.55
2019-05-09T00:10:44.925Z,12.55
2019-05-09T00:13:13.684Z,12.52
2019-05-09T00:15:43.723Z,12.53
2019-05-09T00:18:14.267Z,12.53
2019-05-09T00:20:46.773Z,12.52
2019-05-09T00:23:15.248Z,12.48
2019-05-09T00:25:43.691Z,12.40
2019-05-09T00:28:13.445Z,12.32
2019-05-09T00:30:56.025Z,12.25
2019-05-09T00:33:28.611Z,12.20
2019-05-09T00:35:57.959Z,12.20
2019-05-09T00:38:40.122Z,12.10
2019-05-09T00:41:08.602Z,12.11
2019-05-09T00:43:37.055Z,12.05
2019-05-09T00:46:07.291Z,12.04
2019-05-09T00:48:40.091Z,11.99
2019-05-09T00:51:08.836Z,11.94
2019-05-09T00:53:37.286Z,11.92
2019-05-09T00:56:05.780Z,11.95
2019-05-09T00:58:34.249Z,11.95
2019-05-09T01:01:04.279Z,11.91
2019-05-09T01:03:33.960Z,11.96
2019-05-09T01:06:04.208Z,12.01
2019-05-09T01:08:33.603Z,11.97
2019-05-09T01:11:11.777Z,12.02
2019-05-09T01:13:34.079Z,12.04
2019-05-09T01:16:04.463Z,12.05
2019-05-09T01:18:34.291Z,12.06
2019-05-09T01:21:03.955Z,12.04
2019-05-09T01:23:34.419Z,12.03
2019-05-09T01:26:04.027Z,12.08
2019-05-09T01:28:33.953Z,12.09
2019-05-09T01:31:04.039Z,12.13
2019-05-09T01:33:34.760Z,12.10
2019-05-09T01:36:03.852Z,12.19
2019-05-09T01:38:33.891Z,12.18
2019-05-09T01:41:04.033Z,12.21
2019-05-09T01:43:33.791Z,12.20
2019-05-09T01:46:03.714Z,12.21
2019-05-09T01:48:34.104Z,12.22
2019-05-09T01:51:03.380Z,12.21
2019-05-09T01:53:33.651Z,12.23
2019-05-09T01:56:03.661Z,12.21
2019-05-09T01:58:34.194Z,12.25
2019-05-09T02:01:04.688Z,12.25
2019-05-09T02:03:33.758Z,12.26
2019-05-09T02:06:03.541Z,12.25
2019-05-09T02:08:34.480Z,12.21
2019-05-09T02:11:03.820Z,12.20
2019-05-09T02:13:33.851Z,12.17
2019-05-09T02:16:19.266Z,12.20
2019-05-09T02:18:49.445Z,12.24
2019-05-09T02:21:17.879Z,12.21
2019-05-09T02:23:46.346Z,12.22
2019-05-09T02:26:14.799Z,12.20
2019-05-09T02:28:43.460Z,12.21
2019-05-09T02:31:15.778Z,12.23
2019-05-09T02:33:45.388Z,12.22
2019-05-09T02:36:12.617Z,12.17
2019-05-09T02:38:41.103Z,12.20
2019-05-09T02:41:09.577Z,12.13
2019-05-09T02:43:38.900Z,12.13
2019-05-09T02:46:10.092Z,12.08
2019-05-09T02:48:38.814Z,12.06
2019-05-09T02:51:09.175Z,12.05
2019-05-09T02:53:39.450Z,12.05
2019-05-09T02:56:09.196Z,12.06
2019-05-09T02:58:58.693Z,12.04
2019-05-09T03:01:29.412Z,12.04
2019-05-09T03:03:58.902Z,11.96
2019-05-09T03:06:28.512Z,12.00
2019-05-09T03:08:59.407Z,12.00
2019-05-09T03:11:28.999Z,11.90
2019-05-09T03:13:58.664Z,11.92
2019-05-09T03:16:29.287Z,11.93
2019-05-09T03:18:58.630Z,11.95
2019-05-09T03:21:31.605Z,11.94
2019-05-09T03:24:00.345Z,11.92
2019-05-09T03:26:30.454Z,11.83
2019-05-09T03:29:03.582Z,11.88
2019-05-09T03:31:33.727Z,11.83
2019-05-09T03:34:02.164Z,11.83
2019-05-09T03:36:30.644Z,11.84
2019-05-09T03:38:59.077Z,11.87
2019-05-09T03:41:28.380Z,11.80
2019-05-09T03:43:58.563Z,11.85
2019-05-09T03:46:35.108Z,11.75
2019-05-09T03:49:07.421Z,11.83
2019-05-09T03:51:37.748Z,11.89
2019-05-09T03:54:07.877Z,11.82
2019-05-09T03:56:57.217Z,11.89
2019-05-09T03:59:27.890Z,11.89
2019-05-09T04:01:56.114Z,11.91
2019-05-09T04:04:24.621Z,11.97
2019-05-09T04:06:53.070Z,11.83
2019-05-09T04:09:21.563Z,11.93
2019-05-09T04:11:50.059Z,11.99
2019-05-09T04:14:29.162Z,12.00
2019-05-09T04:16:57.716Z,11.99
2019-05-09T04:19:27.560Z,11.97
2019-05-09T04:21:57.650Z,11.93
2019-05-09T04:24:28.196Z,12.01
2019-05-09T04:26:58.582Z,12.04
2019-05-09T04:29:28.611Z,12.02
2019-05-09T04:31:57.598Z,12.04
2019-05-09T04:34:27.496Z,11.93
2019-05-09T04:36:57.611Z,12.02
2019-05-09T04:39:28.356Z,12.04
2019-05-09T04:42:03.677Z,12.07
2019-05-09T04:44:32.453Z,12.13
2019-05-09T04:47:03.737Z,12.15
2019-05-09T04:49:39.240Z,12.13
2019-05-09T04:52:01.398Z,12.12
2019-05-09T04:54:29.852Z,12.16
2019-05-09T04:56:58.325Z,12.15
2019-05-09T04:59:28.339Z,12.13
2019-05-09T05:02:01.756Z,12.19
2019-05-09T05:04:30.624Z,12.17
2019-05-09T05:06:59.116Z,12.14
2019-05-09T05:09:27.903Z,12.23
2019-05-09T05:11:57.974Z,12.30
2019-05-09T05:14:28.513Z,12.29
2019-05-09T05:17:06.331Z,12.35
2019-05-09T05:19:30.974Z,12.54
2019-05-09T05:21:59.376Z,12.58
2019-05-09T05:24:29.622Z,12.54
2019-05-09T05:26:58.130Z,12.61
2019-05-09T05:29:28.196Z,12.56
2019-05-09T05:31:58.299Z,12.61
2019-05-09T05:34:31.182Z,12.59
2019-05-09T05:36:59.711Z,12.58
2019-05-09T05:39:28.491Z,12.66
2019-05-09T05:41:57.878Z,12.69
2019-05-09T05:44:28.382Z,12.72
2019-05-09T05:47:18.028Z,12.91
2019-05-09T05:49:48.810Z,12.94
2019-05-09T05:52:18.495Z,12.87
2019-05-09T05:54:47.729Z,12.81
2019-05-09T05:57:17.689Z,12.79
2019-05-09T05:59:48.204Z,12.86
2019-05-09T06:02:17.772Z,12.89
2019-05-09T06:04:48.657Z,12.85
2019-05-09T06:07:18.462Z,12.85
2019-05-09T06:09:48.201Z,12.82
2019-05-09T06:12:18.531Z,12.87
2019-05-09T06:14:48.092Z,13.01
2019-05-09T06:17:18.075Z,13.13
2019-05-09T06:19:48.244Z,13.30
2019-05-09T06:22:18.317Z,13.18
2019-05-09T06:24:47.813Z,13.36
2019-05-09T06:27:18.311Z,13.33
2019-05-09T06:29:47.706Z,13.46
2019-05-09T06:32:18.661Z,13.55
2019-05-09T06:34:47.693Z,13.50
2019-05-09T06:37:18.391Z,13.51
2019-05-09T06:39:48.471Z,13.40
2019-05-09T06:42:18.115Z,13.46
2019-05-09T06:44:48.531Z,13.46
2019-05-09T06:47:18.703Z,13.34
2019-05-09T06:49:58.203Z,13.32
2019-05-09T06:52:28.224Z,13.44
2019-05-09T06:54:58.277Z,13.30
2019-05-09T06:57:28.259Z,13.34
2019-05-09T06:59:57.933Z,13.28
2019-05-09T07:02:30.922Z,13.33
2019-05-09T07:05:17.957Z,13.27
2019-05-09T07:08:04.919Z,13.33
2019-05-09T07:10:33.423Z,13.26
2019-05-09T07:13:01.898Z,13.39
2019-05-09T07:15:30.355Z,13.22
2019-05-09T07:17:58.847Z,13.11
2019-05-09T07:20:28.442Z,13.07
2019-05-09T07:22:58.346Z,13.15
2019-05-09T07:25:31.778Z,13.06
2019-05-09T07:28:00.365Z,13.17
2019-05-09T07:30:37.574Z,13.15
2019-05-09T07:33:13.929Z,13.24
2019-05-09T07:35:42.537Z,13.39
2019-05-09T07:38:11.016Z,13.26
2019-05-09T07:40:39.535Z,13.37
2019-05-09T07:43:08.079Z,13.40
2019-05-09T07:45:38.419Z,13.37
2019-05-09T07:48:07.635Z,13.60
2019-05-09T07:50:38.849Z,13.52
2019-05-09T07:53:08.804Z,13.79
2019-05-09T07:55:37.921Z,13.85
2019-05-09T07:58:08.086Z,14.02
2019-05-09T08:00:38.550Z,13.95
2019-05-09T08:03:12.053Z,13.97
2019-05-09T08:05:38.521Z,14.17
2019-05-09T08:08:10.600Z,13.95
2019-05-09T08:10:42.691Z,13.98
2019-05-09T08:13:12.005Z,13.87
2019-05-09T08:15:42.421Z,13.93
2019-05-09T08:18:11.618Z,13.98
2019-05-09T08:20:40.889Z,14.21
2019-05-09T08:23:09.420Z,14.46
2019-05-09T08:25:38.414Z,14.68
2019-05-09T08:28:09.041Z,14.67
2019-05-09T08:30:40.108Z,14.99
2019-05-09T08:33:08.381Z,14.88
2019-05-09T08:35:38.350Z,14.64
2019-05-09T08:38:08.520Z,14.54
2019-05-09T08:40:38.181Z,14.71
2019-05-09T08:43:07.703Z,14.79
2019-05-09T08:45:38.302Z,14.52
2019-05-09T08:48:09.205Z,14.75
2019-05-09T08:50:48.123Z,14.65
2019-05-09T08:53:18.847Z,14.71
2019-05-09T08:55:47.546Z,14.59
2019-05-09T08:58:19.306Z,14.59
2019-05-09T09:00:48.393Z,14.48
2019-05-09T09:03:18.469Z,14.70
2019-05-09T09:05:48.571Z,14.77
2019-05-09T09:08:18.321Z,14.83
2019-05-09T09:10:48.800Z,15.06
2019-05-09T09:13:17.630Z,15.44
2019-05-09T09:16:05.444Z,15.52
2019-05-09T09:18:18.086Z,15.45
2019-05-09T09:20:48.591Z,15.61
2019-05-09T09:23:18.185Z,15.99
2019-05-09T09:25:48.720Z,16.13
2019-05-09T09:28:18.271Z,16.34
2019-05-09T09:30:48.431Z,16.58
2019-05-09T09:33:17.668Z,16.18
2019-05-09T09:35:48.708Z,15.88
2019-05-09T09:38:17.695Z,15.91
2019-05-09T09:40:47.741Z,15.53
2019-05-09T09:43:17.660Z,15.50
2019-05-09T09:45:48.082Z,15.26
2019-05-09T09:48:18.058Z,15.42
2019-05-09T09:50:51.385Z,15.30
2019-05-09T09:53:18.472Z,15.23
2019-05-09T09:55:47.810Z,15.37
2019-05-09T09:58:18.954Z,15.61
2019-05-09T10:01:04.100Z,15.49
2019-05-09T10:03:33.674Z,15.57
2019-05-09T10:06:02.148Z,15.30
2019-05-09T10:08:30.655Z,15.42
2019-05-09T10:10:59.387Z,15.68
2019-05-09T10:13:28.600Z,15.81
2019-05-09T10:15:58.940Z,16.07
2019-05-09T10:18:32.034Z,16.39
2019-05-09T10:21:02.172Z,16.23
2019-05-09T10:23:30.651Z,16.05
2019-05-09T10:25:59.171Z,16.24
2019-05-09T10:28:30.066Z,16.30
2019-05-09T10:30:57.928Z,16.14
2019-05-09T10:33:28.057Z,16.14
2019-05-09T10:36:04.568Z,16.22
2019-05-09T10:38:28.059Z,15.93
2019-05-09T10:41:01.255Z,15.43
2019-05-09T10:43:38.028Z,15.42
2019-05-09T10:46:19.494Z,14.95
2019-05-09T10:48:49.867Z,14.63
2019-05-09T10:51:18.723Z,13.91
2019-05-09T10:53:48.168Z,13.63
2019-05-09T10:56:18.823Z,13.43
2019-05-09T10:58:48.205Z,13.22
2019-05-09T11:01:18.600Z,13.43
2019-05-09T11:03:48.337Z,13.60
2019-05-09T11:06:18.398Z,13.58
2019-05-09T11:08:47.830Z,13.62
2019-05-09T11:11:18.381Z,13.75
2019-05-09T11:13:48.247Z,13.96
2019-05-09T11:16:18.315Z,14.04
2019-05-09T11:18:48.297Z,14.21
2019-05-09T11:21:19.190Z,14.30
2019-05-09T11:23:48.768Z,15.15
2019-05-09T11:26:18.178Z,15.88
2019-05-09T11:28:47.090Z,16.84
2019-05-09T11:31:17.989Z,16.77
2019-05-09T11:33:48.481Z,15.71
2019-05-09T11:36:20.817Z,17.62
2019-05-09T11:38:49.387Z,18.15
2019-05-09T11:41:19.262Z,18.74
2019-05-09T11:43:48.554Z,18.75
2019-05-09T11:46:18.200Z,19.42
2019-05-09T11:48:46.992Z,19.58
2019-05-09T11:51:20.439Z,19.43
2019-05-09T11:53:48.641Z,19.16
2019-05-09T11:56:17.927Z,20.32
2019-05-09T11:58:48.061Z,19.93
2019-05-09T12:01:19.039Z,20.78
2019-05-09T12:03:49.893Z,20.37
2019-05-09T12:06:19.684Z,21.52
2019-05-09T12:08:48.293Z,22.71
2019-05-09T12:11:18.345Z,22.41
2019-05-09T12:13:48.602Z,20.47
2019-05-09T12:16:18.450Z,20.26
2019-05-09T12:18:48.943Z,19.73
2019-05-09T12:21:19.031Z,20.56
2019-05-09T12:23:49.059Z,18.99
2019-05-09T12:26:18.557Z,19.60
2019-05-09T12:28:48.150Z,19.04
2019-05-09T12:31:18.176Z,18.03
2019-05-09T12:33:48.257Z,17.64
2019-05-09T12:36:19.172Z,17.46
2019-05-09T12:38:49.732Z,17.68
2019-05-09T12:41:18.970Z,17.58
2019-05-09T12:43:47.859Z,17.24
2019-05-09T12:46:16.386Z,17.03
2019-05-09T12:48:44.947Z,16.79
2019-05-09T12:51:13.453Z,16.83
2019-05-09T12:53:41.972Z,16.68
2019-05-09T12:56:10.417Z,16.58
2019-05-09T12:58:38.938Z,16.60
2019-05-09T13:01:07.679Z,16.70
2019-05-09T13:03:38.205Z,16.29
2019-05-09T13:06:07.972Z,16.52
2019-05-09T13:08:38.499Z,16.64
2019-05-09T13:11:08.058Z,16.58
2019-05-09T13:13:40.833Z,16.55
2019-05-09T13:16:14.078Z,16.79
2019-05-09T13:19:02.465Z,16.58
2019-05-09T13:21:32.872Z,16.55
2019-05-09T13:23:59.787Z,16.88
2019-05-09T13:26:29.142Z,16.84
2019-05-09T13:28:58.838Z,17.02
2019-05-09T13:31:29.457Z,17.15
2019-05-09T13:33:58.474Z,17.98
2019-05-09T13:36:28.395Z,18.39
2019-05-09T13:39:04.425Z,19.68
2019-05-09T13:41:27.547Z,23.72
2019-05-09T13:43:59.188Z,24.06
2019-05-09T13:46:28.276Z,25.88
2019-05-09T13:49:09.981Z,26.01
2019-05-09T13:51:26.634Z,26.92
2019-05-09T13:53:55.100Z,21.41
2019-05-09T13:56:23.584Z,19.94
2019-05-09T13:58:52.064Z,19.08
2019-05-09T14:01:20.609Z,17.81
2019-05-09T14:03:49.271Z,17.82
2019-05-09T14:06:18.138Z,17.74
2019-05-09T14:08:48.962Z,17.95
2019-05-09T14:11:19.127Z,18.03
2019-05-09T14:13:48.753Z,18.52
2019-05-09T14:16:22.005Z,19.01
2019-05-09T14:18:48.563Z,22.88
2019-05-09T14:21:21.453Z,25.39
2019-05-09T14:24:00.942Z,21.21
2019-05-09T14:26:18.155Z,18.78
2019-05-09T14:28:48.853Z,19.04
2019-05-09T14:31:18.569Z,18.53
2019-05-09T14:33:47.819Z,17.99
2019-05-09T14:36:16.556Z,18.51
2019-05-09T14:38:45.136Z,18.60
2019-05-09T14:41:13.846Z,19.69
2019-05-09T14:43:42.325Z,25.17
2019-05-09T14:46:10.804Z,26.66
2019-05-09T14:48:39.294Z,26.70
2019-05-09T14:51:07.901Z,24.72
2019-05-09T14:53:38.915Z,26.72
2019-05-09T14:56:08.773Z,26.84
2019-05-09T14:58:38.719Z,22.72
2019-05-09T15:01:08.643Z,19.94
2019-05-09T15:03:38.864Z,19.44
2019-05-09T15:06:07.711Z,19.53
2019-05-09T15:08:38.240Z,19.67
2019-05-09T15:11:10.627Z,19.30
2019-05-09T15:13:40.864Z,23.08
2019-05-09T15:16:09.541Z,22.05
2019-05-09T15:18:40.056Z,20.84
2019-05-09T15:21:10.945Z,19.58
2019-05-09T15:23:41.019Z,18.80
2019-05-09T15:26:09.707Z,18.31
2019-05-09T15:28:38.651Z,18.54
2019-05-09T15:31:08.913Z,18.26
2019-05-09T15:33:37.620Z,18.22
2019-05-09T15:36:09.027Z,18.11
2019-05-09T15:38:38.019Z,18.46
2019-05-09T15:41:12.101Z,18.46
2019-05-09T15:43:38.167Z,18.67
2019-05-09T15:46:08.886Z,19.20
2019-05-09T15:48:38.151Z,18.98
2019-05-09T15:51:07.556Z,18.95
2019-05-09T15:53:38.116Z,19.29
2019-05-09T15:56:08.037Z,19.76
2019-05-09T15:58:38.549Z,21.07
2019-05-09T16:01:08.166Z,19.72
2019-05-09T16:03:38.215Z,20.93
2019-05-09T16:06:09.066Z,20.90
2019-05-09T16:08:38.082Z,20.12
2019-05-09T16:11:08.669Z,20.54
2019-05-09T16:13:37.360Z,19.63
2019-05-09T16:16:08.925Z,18.77
2019-05-09T16:18:38.047Z,18.47
2019-05-09T16:21:08.417Z,18.21
2019-05-09T16:23:38.096Z,18.15
2019-05-09T16:26:07.898Z,18.46
2019-05-09T16:28:37.902Z,17.85
2019-05-09T16:31:07.247Z,17.92
2019-05-09T16:33:35.760Z,18.07
2019-05-09T16:36:04.278Z,17.84
2019-05-09T16:38:42.989Z,18.11
2019-05-09T16:41:02.998Z,18.23
2019-05-09T16:43:31.463Z,18.42
2019-05-09T16:45:59.918Z,18.52
2019-05-09T16:48:28.400Z,18.59
2019-05-09T16:51:03.358Z,18.53
2019-05-09T16:53:27.852Z,18.23
2019-05-09T16:55:57.800Z,18.34
2019-05-09T16:58:27.436Z,18.30
2019-05-09T17:00:56.195Z,18.17
2019-05-09T17:03:24.830Z,18.05
2019-05-09T17:05:53.746Z,18.07
2019-05-09T17:08:22.364Z,17.90
2019-05-09T17:10:50.824Z,17.82
2019-05-09T17:13:19.377Z,17.60
2019-05-09T17:15:48.085Z,17.41
2019-05-09T17:18:18.869Z,17.70
2019-05-09T17:20:48.822Z,17.69
2019-05-09T17:23:19.110Z,17.63
2019-05-09T17:25:48.136Z,17.62
2019-05-09T17:28:17.824Z,17.41
2019-05-09T17:30:49.045Z,17.44
2019-05-09T17:33:16.859Z,17.66
2019-05-09T17:35:45.349Z,17.54
2019-05-09T17:38:14.165Z,17.48
2019-05-09T17:40:42.694Z,17.54
2019-05-09T17:43:11.181Z,17.68
2019-05-09T17:45:42.231Z,17.55
2019-05-09T17:48:10.006Z,17.47
2019-05-09T17:50:38.681Z,17.33
2019-05-09T17:53:08.616Z,17.17
2019-05-09T17:55:38.093Z,16.82
2019-05-09T17:58:08.743Z,16.92
2019-05-09T18:00:37.969Z,17.01
2019-05-09T18:03:06.841Z,16.68
2019-05-09T18:05:36.673Z,16.86
2019-05-09T18:08:08.022Z,17.04
2019-05-09T18:10:38.005Z,16.99
2019-05-09T18:13:08.038Z,17.06
2019-05-09T18:15:38.044Z,17.05
2019-05-09T18:18:07.012Z,16.97
2019-05-09T18:20:37.989Z,16.98
2019-05-09T18:23:08.206Z,16.89
2019-05-09T18:25:37.808Z,16.61
2019-05-09T18:28:07.155Z,16.33
2019-05-09T18:30:38.659Z,16.10
2019-05-09T18:33:16.745Z,15.93
2019-05-09T18:35:47.608Z,15.85
2019-05-09T18:38:28.188Z,15.75
2019-05-09T18:40:57.876Z,15.71
2019-05-09T18:43:27.499Z,15.64
2019-05-09T18:45:57.756Z,15.49
2019-05-09T18:48:27.790Z,15.28
2019-05-09T18:50:56.611Z,15.07
2019-05-09T18:53:25.071Z,15.01
2019-05-09T18:55:53.593Z,15.11
2019-05-09T18:58:22.161Z,15.16
2019-05-09T19:00:51.306Z,15.25
2019-05-09T19:03:19.826Z,15.23
2019-05-09T19:05:48.710Z,15.31
2019-05-09T19:08:17.215Z,15.03
2019-05-09T19:10:45.785Z,15.06
2019-05-09T19:13:14.266Z,15.17
2019-05-09T19:15:44.576Z,15.12
2019-05-09T19:18:15.911Z,14.93
2019-05-09T19:20:52.241Z,15.01
2019-05-09T19:23:20.761Z,14.94
2019-05-09T19:25:49.350Z,14.88
2019-05-09T19:28:17.830Z,14.84
2019-05-09T19:30:46.338Z,14.76
2019-05-09T19:33:16.502Z,14.76
2019-05-09T19:35:44.967Z,14.76
2019-05-09T19:38:13.494Z,14.65
2019-05-09T19:40:41.961Z,14.50
2019-05-09T19:43:10.528Z,14.24
2019-05-09T19:45:39.147Z,14.31
2019-05-09T19:48:07.704Z,14.29
2019-05-09T19:50:36.117Z,14.26
2019-05-09T19:53:04.742Z,14.20
2019-05-09T19:55:33.240Z,14.36
2019-05-09T19:58:01.951Z,14.35
2019-05-09T20:00:30.515Z,14.24
2019-05-09T20:02:58.988Z,14.26
2019-05-09T20:05:27.431Z,14.25
2019-05-09T20:07:55.976Z,14.28
2019-05-09T20:10:26.097Z,14.16
2019-05-09T20:13:11.105Z,14.19
2019-05-09T20:15:39.870Z,14.16
2019-05-09T20:18:08.385Z,14.16
2019-05-09T20:20:36.883Z,14.09
2019-05-09T20:23:05.381Z,14.05
2019-05-09T20:25:34.049Z,14.07
2019-05-09T20:28:02.713Z,13.96
2019-05-09T20:30:31.197Z,13.92
2019-05-09T20:32:59.693Z,13.86
2019-05-09T20:35:28.587Z,13.73
2019-05-09T20:37:57.263Z,13.61
2019-05-09T20:40:25.914Z,13.61
2019-05-09T20:42:56.877Z,13.63
2019-05-09T20:45:25.587Z,13.67
2019-05-09T20:47:54.216Z,13.65
2019-05-09T20:50:22.955Z,13.95
2019-05-09T20:52:51.647Z,13.96
2019-05-09T20:55:20.315Z,13.92
2019-05-09T20:57:51.930Z,13.64
2019-05-09T21:00:20.017Z,13.87
2019-05-09T21:02:48.688Z,13.58
2019-05-09T21:05:17.430Z,13.60
2019-05-09T21:07:46.052Z,13.56
2019-05-09T21:10:15.063Z,13.53
2019-05-09T21:12:43.719Z,13.51
2019-05-09T21:15:12.793Z,13.52
2019-05-09T21:17:41.643Z,13.29
2019-05-09T21:20:10.359Z,13.28
2019-05-09T21:22:39.084Z,13.21
2019-05-09T21:25:08.182Z,13.08
2019-05-09T21:27:37.106Z,13.06
2019-05-09T21:30:09.793Z,13.00
2019-05-09T21:32:38.470Z,13.06
2019-05-09T21:35:07.086Z,12.99
2019-05-09T21:37:35.554Z,13.04
2019-05-09T21:40:08.424Z,12.88
2019-05-09T21:42:36.946Z,12.83
2019-05-09T21:45:08.949Z,12.84
2019-05-09T21:47:39.472Z,12.80
2019-05-09T21:50:08.328Z,12.86
2019-05-09T21:52:40.117Z,12.83
2019-05-09T21:55:08.810Z,12.62
2019-05-09T21:57:37.404Z,12.49
2019-05-09T22:00:11.727Z,12.45
2019-05-09T22:02:40.291Z,12.46
2019-05-09T22:05:09.482Z,12.42
2019-05-09T22:07:37.965Z,12.29
2019-05-09T22:10:07.165Z,12.23
2019-05-09T22:12:35.762Z,12.25
2019-05-09T22:15:05.802Z,12.21
2019-05-09T22:17:35.944Z,12.21
2019-05-09T22:20:07.600Z,12.21
2019-05-09T22:22:36.147Z,12.14
2019-05-09T22:25:08.804Z,12.13
2019-05-09T22:27:37.789Z,12.07
2019-05-09T22:30:08.115Z,12.03
2019-05-09T22:32:37.172Z,12.04
2019-05-09T22:35:06.181Z,12.10
2019-05-09T22:37:34.691Z,11.94
2019-05-09T22:40:04.217Z,11.97
2019-05-09T22:42:32.698Z,12.18
2019-05-09T22:45:01.170Z,12.03
2019-05-09T22:47:29.672Z,11.84
2019-05-09T22:49:58.135Z,11.73
2019-05-09T22:52:26.687Z,11.71
2019-05-09T22:54:55.146Z,11.71
2019-05-09T22:57:23.974Z,11.75
2019-05-09T22:59:52.417Z,11.79
2019-05-09T23:02:21.023Z,11.69
2019-05-09T23:04:49.503Z,11.70
2019-05-09T23:07:18.162Z,11.66
2019-05-09T23:09:46.639Z,11.63
2019-05-09T23:12:15.164Z,11.59
2019-05-09T23:14:43.608Z,11.56
2019-05-09T23:17:12.131Z,11.63
2019-05-09T23:19:40.611Z,11.65
2019-05-09T23:22:09.799Z,11.61
2019-05-09T23:24:39.468Z,11.60
2019-05-09T23:27:09.908Z,11.58
2019-05-09T23:29:38.376Z,11.51
2019-05-09T23:32:08.566Z,11.46
2019-05-09T23:34:37.007Z,11.52
2019-05-09T23:37:05.518Z,11.51
2019-05-09T23:39:35.609Z,11.53
2019-05-09T23:42:04.106Z,11.51
2019-05-09T23:44:32.563Z,11.49
2019-05-09T23:47:01.046Z,11.47
2019-05-09T23:49:29.529Z,11.45
2019-05-09T23:51:58.016Z,11.49
2019-05-09T23:54:46.395Z,11.43
2019-05-09T23:57:32.221Z,11.48
